createdAt,value
2022-11-08T00:01:14.769Z,98086.31
2022-11-08T00:03:40.873Z,98096.94
2022-11-08T00:06:06.965Z,98092.81
2022-11-08T00:08:33.056Z,98085.22
2022-11-08T00:10:59.178Z,98086.41
2022-11-08T00:13:25.265Z,98086.78
2022-11-08T00:15:51.353Z,98083.19
2022-11-08T00:18:17.571Z,98088.72
2022-11-08T00:20:43.814Z,98087.84
2022-11-08T00:23:09.908Z,98086.41
2022-11-08T00:25:36.016Z,98083.47
2022-11-08T00:28:02.113Z,98080.81
2022-11-08T00:30:28.224Z,98077.72
2022-11-08T00:32:54.351Z,98084.38
2022-11-08T00:35:20.454Z,98079.09
2022-11-08T00:37:46.556Z,98078.06
2022-11-08T00:40:12.668Z,98069.13
2022-11-08T00:42:38.769Z,98074.44
2022-11-08T00:45:04.875Z,98072.97
2022-11-08T00:47:30.997Z,98080.28
2022-11-08T00:49:57.107Z,98079.47
2022-11-08T00:52:23.202Z,98085.31
2022-11-08T00:54:49.998Z,98076.16
2022-11-08T00:57:16.091Z,98066.53
2022-11-08T00:59:42.174Z,98072.84
2022-11-08T01:02:08.326Z,98062.09
2022-11-08T01:04:34.471Z,98061.22
2022-11-08T01:07:00.567Z,98071.84
2022-11-08T01:09:26.693Z,98072.84
2022-11-08T01:11:52.804Z,98073.13
2022-11-08T01:14:18.904Z,98077.63
2022-11-08T01:16:45.017Z,98070.47
2022-11-08T01:19:11.113Z,98077.16
2022-11-08T01:21:37.214Z,98077.25
2022-11-08T01:24:03.328Z,98074.78
2022-11-08T01:26:29.452Z,98073.41
2022-11-08T01:28:55.558Z,98064.25
2022-11-08T01:31:21.678Z,98065.28
2022-11-08T01:33:51.283Z,98062.47
2022-11-08T01:36:17.757Z,98059.44
2022-11-08T01:38:43.865Z,98062.25
2022-11-08T01:41:09.972Z,98049.47
2022-11-08T01:43:36.067Z,98062.91
2022-11-08T01:46:02.201Z,98060.50
2022-11-08T01:48:28.294Z,98059.97
2022-11-08T01:50:54.394Z,98052.66
2022-11-08T01:53:20.523Z,98048.34
2022-11-08T01:55:46.618Z,98046.16
2022-11-08T01:58:12.701Z,98059.88
2022-11-08T02:00:39.413Z,98050.91
2022-11-08T02:03:05.519Z,98047.44
2022-11-08T02:05:31.608Z,98054.22
2022-11-08T02:07:57.732Z,98050.75
2022-11-08T02:10:23.827Z,98049.72
2022-11-08T02:12:49.927Z,98041.59
2022-11-08T02:15:16.055Z,98045.16
2022-11-08T02:17:42.159Z,98042.13
2022-11-08T02:20:08.250Z,98042.75
2022-11-08T02:22:34.384Z,98039.28
2022-11-08T02:25:00.516Z,98043.03
2022-11-08T02:27:26.637Z,98037.72
2022-11-08T02:29:52.753Z,98039.00
2022-11-08T02:32:18.849Z,98037.41
2022-11-08T02:34:44.940Z,98042.72
2022-11-08T02:37:11.043Z,98033.75
2022-11-08T02:39:37.141Z,98037.41
2022-11-08T02:42:03.233Z,98028.91
2022-11-08T02:44:29.701Z,98034.00
2022-11-08T02:46:55.789Z,98027.22
2022-11-08T02:49:21.875Z,98013.97
2022-11-08T02:51:47.998Z,98021.56
2022-11-08T02:54:14.105Z,98008.72
2022-11-08T02:56:40.286Z,98013.22
2022-11-08T02:59:06.383Z,98008.94
2022-11-08T03:01:32.565Z,98017.50
2022-11-08T03:03:58.733Z,98014.25
2022-11-08T03:06:24.852Z,97998.94
2022-11-08T03:08:50.956Z,97998.31
2022-11-08T03:11:17.058Z,97996.66
2022-11-08T03:13:43.172Z,98000.75
2022-11-08T03:16:09.250Z,97992.53
2022-11-08T03:18:35.356Z,97989.06
2022-11-08T03:21:01.471Z,97984.16
2022-11-08T03:23:27.562Z,97984.25
2022-11-08T03:25:53.652Z,97970.00
2022-11-08T03:28:22.829Z,97986.47
2022-11-08T03:30:49.469Z,97973.75
2022-11-08T03:33:15.566Z,97964.91
2022-11-08T03:35:41.694Z,97972.41
2022-11-08T03:38:07.797Z,97963.44
2022-11-08T03:40:33.883Z,97964.19
2022-11-08T03:42:59.988Z,97953.41
2022-11-08T03:45:26.090Z,97949.09
2022-11-08T03:47:52.184Z,97957.81
2022-11-08T03:50:18.288Z,97941.41
2022-11-08T03:52:44.390Z,97939.59
2022-11-08T03:55:10.484Z,97947.09
2022-11-08T03:57:36.597Z,97929.56
2022-11-08T04:00:02.693Z,97934.66
2022-11-08T04:02:28.811Z,97938.72
2022-11-08T04:04:55.496Z,97926.19
2022-11-08T04:07:21.603Z,97925.16
2022-11-08T04:09:47.693Z,97926.56
2022-11-08T04:12:13.818Z,97920.25
2022-11-08T04:14:39.909Z,97921.06
2022-11-08T04:17:06.007Z,97913.31
2022-11-08T04:19:32.123Z,97913.09
2022-11-08T04:21:58.220Z,97917.59
2022-11-08T04:24:24.316Z,97914.84
2022-11-08T04:26:50.428Z,97915.22
2022-11-08T04:29:16.517Z,97912.75
2022-11-08T04:31:42.621Z,97909.66
2022-11-08T04:34:08.760Z,97910.47
2022-11-08T04:36:34.851Z,97905.56
2022-11-08T04:39:00.937Z,97901.72
2022-11-08T04:41:27.057Z,97911.50
2022-11-08T04:43:53.159Z,97906.75
2022-11-08T04:46:19.263Z,97914.06
2022-11-08T04:48:45.383Z,97907.31
2022-11-08T04:51:11.474Z,97909.97
2022-11-08T04:53:37.576Z,97900.53
2022-11-08T04:56:03.686Z,97889.13
2022-11-08T04:58:29.814Z,97879.72
2022-11-08T05:00:55.923Z,97879.72
2022-11-08T05:03:22.044Z,97882.72
2022-11-08T05:05:48.147Z,97884.03
2022-11-08T05:08:14.274Z,97875.06
2022-11-08T05:10:40.738Z,97886.47
2022-11-08T05:13:06.828Z,97884.84
2022-11-08T05:15:32.927Z,97873.97
2022-11-08T05:17:59.059Z,97871.16
2022-11-08T05:20:25.157Z,97871.50
2022-11-08T05:22:52.265Z,97870.50
2022-11-08T05:25:18.408Z,97883.28
2022-11-08T05:27:44.513Z,97873.50
2022-11-08T05:30:10.608Z,97875.06
2022-11-08T05:32:36.739Z,97873.25
2022-11-08T05:35:02.832Z,97866.47
2022-11-08T05:37:28.928Z,97869.13
2022-11-08T05:39:55.049Z,97866.94
2022-11-08T05:42:21.157Z,97861.38
2022-11-08T05:44:47.247Z,97854.03
2022-11-08T05:47:13.516Z,97848.56
2022-11-08T05:49:39.609Z,97836.16
2022-11-08T05:52:05.756Z,97837.16
2022-11-08T05:54:31.873Z,97834.88
2022-11-08T05:56:57.970Z,97836.09
2022-11-08T05:59:24.114Z,97834.25
2022-11-08T06:01:50.309Z,97828.94
2022-11-08T06:04:16.442Z,97826.09
2022-11-08T06:06:42.697Z,97814.25
2022-11-08T06:09:08.821Z,97799.44
2022-11-08T06:11:34.920Z,97799.81
2022-11-08T06:14:01.025Z,97808.84
2022-11-08T06:16:27.155Z,97802.34
2022-11-08T06:18:53.333Z,97788.47
2022-11-08T06:21:19.425Z,97781.78
2022-11-08T06:23:45.536Z,97775.47
2022-11-08T06:26:11.628Z,97769.19
2022-11-08T06:28:37.719Z,97771.00
2022-11-08T06:31:04.060Z,97777.13
2022-11-08T06:33:30.166Z,97769.81
2022-11-08T06:35:56.259Z,97773.91
2022-11-08T06:38:22.400Z,97765.97
2022-11-08T06:40:48.566Z,97768.63
2022-11-08T06:43:19.375Z,97776.00
2022-11-08T06:45:46.074Z,97759.91
2022-11-08T06:48:12.160Z,97755.06
2022-11-08T06:50:38.249Z,97748.34
2022-11-08T06:53:04.372Z,97731.66
2022-11-08T06:55:30.479Z,97731.66
2022-11-08T06:57:56.600Z,97735.56
2022-11-08T07:00:22.755Z,97732.53
2022-11-08T07:02:48.999Z,97746.00
2022-11-08T07:05:15.159Z,97742.97
2022-11-08T07:07:41.266Z,97745.03
2022-11-08T07:10:07.359Z,97740.81
2022-11-08T07:12:33.465Z,97740.41
2022-11-08T07:15:00.240Z,97725.97
2022-11-08T07:17:26.336Z,97723.69
2022-11-08T07:19:52.444Z,97739.66
2022-11-08T07:22:18.553Z,97737.66
2022-11-08T07:24:44.645Z,97735.44
2022-11-08T07:27:10.727Z,97730.59
2022-11-08T07:29:36.844Z,97734.84
2022-11-08T07:32:02.944Z,97730.81
2022-11-08T07:34:29.045Z,97730.03
2022-11-08T07:36:55.163Z,97737.63
2022-11-08T07:39:21.265Z,97741.16
2022-11-08T07:41:47.352Z,97755.06
2022-11-08T07:44:13.472Z,97744.88
2022-11-08T07:46:39.576Z,97746.56
2022-11-08T07:49:05.668Z,97753.13
2022-11-08T07:51:31.770Z,97750.53
2022-11-08T07:54:02.657Z,97744.66
2022-11-08T07:56:29.229Z,97758.34
2022-11-08T07:58:55.345Z,97749.59
2022-11-08T08:01:21.445Z,97752.28
2022-11-08T08:03:47.553Z,97738.63
2022-11-08T08:06:13.671Z,97745.84
2022-11-08T08:08:39.763Z,97751.81
2022-11-08T08:11:05.938Z,97751.22
2022-11-08T08:13:32.060Z,97751.47
2022-11-08T08:15:58.139Z,97752.31
2022-11-08T08:18:24.241Z,97743.75
2022-11-08T08:20:50.394Z,97742.13
2022-11-08T08:23:16.688Z,97748.72
2022-11-08T08:25:43.031Z,97745.66
2022-11-08T08:28:09.156Z,97744.06
2022-11-08T08:30:35.258Z,97744.06
2022-11-08T08:33:26.437Z,97754.13
2022-11-08T08:35:47.473Z,97753.72
2022-11-08T08:38:13.577Z,97756.22
2022-11-08T08:40:39.669Z,97753.53
2022-11-08T08:43:05.776Z,97764.44
2022-11-08T08:45:31.864Z,97760.94
2022-11-08T08:47:57.957Z,97772.84
2022-11-08T08:50:24.066Z,97763.44
2022-11-08T08:52:50.165Z,97758.56
2022-11-08T08:55:16.255Z,97760.38
2022-11-08T08:57:42.371Z,97770.84
2022-11-08T09:02:54.600Z,97773.94
2022-11-08T09:05:20.764Z,97768.63
2022-11-08T09:07:46.867Z,97753.88
2022-11-08T09:10:12.975Z,97773.97
2022-11-08T09:12:39.083Z,97766.38
2022-11-08T09:15:05.195Z,97758.56
2022-11-08T09:17:32.121Z,97746.94
2022-11-08T09:19:58.280Z,97749.59
2022-11-08T09:22:24.396Z,97755.13
2022-11-08T09:24:50.511Z,97753.88
2022-11-08T09:27:16.625Z,97745.06
2022-11-08T09:29:42.706Z,97747.28
2022-11-08T09:32:08.828Z,97735.81
2022-11-08T09:34:34.937Z,97743.81
2022-11-08T09:37:02.304Z,97739.09
2022-11-08T09:39:28.412Z,97743.19
2022-11-08T09:41:55.752Z,97735.81
2022-11-08T09:44:22.039Z,97738.66
2022-11-08T09:46:48.148Z,97739.25
2022-11-08T09:49:14.236Z,97748.88
2022-11-08T09:51:40.388Z,97742.31
2022-11-08T09:54:06.492Z,97743.50
2022-11-08T09:56:32.593Z,97738.38
2022-11-08T09:58:58.685Z,97748.38
2022-11-08T10:01:27.446Z,97743.03
2022-11-08T10:03:53.775Z,97756.16
2022-11-08T10:06:19.930Z,97754.84
2022-11-08T10:08:46.107Z,97771.09
2022-11-08T10:11:12.200Z,97766.78
2022-11-08T10:13:38.290Z,97764.34
2022-11-08T10:16:04.447Z,97776.19
2022-11-08T10:18:30.557Z,97766.72
2022-11-08T10:20:56.668Z,97760.75
2022-11-08T10:23:22.785Z,97760.53
2022-11-08T10:25:48.911Z,97757.66
2022-11-08T10:28:15.017Z,97750.88
2022-11-08T10:30:41.442Z,97759.91
2022-11-08T10:33:07.544Z,97757.03
2022-11-08T10:35:33.636Z,97758.91
2022-11-08T10:37:59.756Z,97755.16
2022-11-08T10:40:25.857Z,97758.03
2022-11-08T10:42:51.948Z,97762.13
2022-11-08T10:45:18.059Z,97746.97
2022-11-08T10:47:44.156Z,97754.34
2022-11-08T10:50:10.251Z,97748.00
2022-11-08T10:52:36.360Z,97743.91
2022-11-08T10:55:02.453Z,97731.63
2022-11-08T10:57:28.547Z,97730.97
2022-11-08T10:59:54.664Z,97700.59
2022-11-08T11:02:20.836Z,97717.03
2022-11-08T11:04:46.939Z,97719.44
2022-11-08T11:07:13.074Z,97707.16
2022-11-08T11:09:39.200Z,97712.66
2022-11-08T11:12:05.283Z,97709.00
2022-11-08T11:14:31.423Z,97704.09
2022-11-08T11:16:57.514Z,97706.97
2022-11-08T11:19:23.616Z,97704.97
2022-11-08T11:21:50.199Z,97694.13
2022-11-08T11:24:19.233Z,97689.16
2022-11-08T11:26:46.334Z,97692.22
2022-11-08T11:29:12.436Z,97686.13
2022-11-08T11:31:38.538Z,97674.22
2022-11-08T11:34:04.638Z,97676.88
2022-11-08T11:36:30.753Z,97676.06
2022-11-08T11:38:56.863Z,97680.19
2022-11-08T11:41:22.972Z,97687.56
2022-11-08T11:43:49.139Z,97684.88
2022-11-08T11:46:15.229Z,97679.13
2022-11-08T11:48:41.345Z,97666.56
2022-11-08T11:51:07.556Z,97678.88
2022-11-08T11:53:33.709Z,97672.16
2022-11-08T11:55:59.792Z,97672.91
2022-11-08T11:58:25.903Z,97676.59
2022-11-08T12:00:51.996Z,97665.28
2022-11-08T12:03:18.430Z,97682.16
2022-11-08T12:05:44.895Z,97673.84
2022-11-08T12:08:10.986Z,97666.28
2022-11-08T12:10:37.080Z,97670.31
2022-11-08T12:13:03.210Z,97651.91
2022-11-08T12:15:29.305Z,97659.88
2022-11-08T12:17:55.405Z,97646.47
2022-11-08T12:20:26.577Z,97656.25
2022-11-08T12:22:53.327Z,97656.66
2022-11-08T12:25:19.427Z,97654.41
2022-11-08T12:27:45.528Z,97645.91
2022-11-08T12:30:11.741Z,97643.13
2022-11-08T12:32:37.919Z,97638.34
2022-11-08T12:35:04.327Z,97634.78
2022-11-08T12:37:30.430Z,97653.59
2022-11-08T12:39:56.531Z,97654.22
2022-11-08T12:42:22.632Z,97636.72
2022-11-08T12:44:48.735Z,97641.31
2022-11-08T12:47:14.838Z,97645.66
2022-11-08T12:49:40.954Z,97641.00
2022-11-08T12:52:07.053Z,97638.03
2022-11-08T12:54:33.166Z,97639.66
2022-11-08T12:56:59.269Z,97647.59
2022-11-08T12:59:25.369Z,97645.16
2022-11-08T13:01:51.468Z,97641.31
2022-11-08T13:04:17.594Z,97652.88
2022-11-08T13:06:43.727Z,97641.75
2022-11-08T13:09:09.867Z,97646.50
2022-11-08T13:11:35.982Z,97636.41
2022-11-08T13:14:02.088Z,97639.25
2022-11-08T13:16:28.176Z,97645.38
2022-11-08T13:18:54.285Z,97647.06
2022-11-08T13:21:20.382Z,97645.75
2022-11-08T13:23:46.676Z,97643.22
2022-11-08T13:26:12.807Z,97645.09
2022-11-08T13:28:38.901Z,97630.78
2022-11-08T13:31:04.994Z,97637.31
2022-11-08T13:33:31.107Z,97646.66
2022-11-08T13:35:57.219Z,97668.88
2022-11-08T13:38:23.334Z,97678.03
2022-11-08T13:40:54.802Z,97676.63
2022-11-08T13:43:22.012Z,97675.88
2022-11-08T13:45:48.111Z,97671.03
2022-11-08T13:48:16.624Z,97680.44
2022-11-08T13:50:46.095Z,97686.00
2022-11-08T13:53:12.201Z,97684.28
2022-11-08T13:55:38.318Z,97674.41
2022-11-08T13:58:04.411Z,97652.75
2022-11-08T14:00:30.511Z,97661.56
2022-11-08T14:02:56.621Z,97657.84
2022-11-08T14:05:22.730Z,97649.22
2022-11-08T14:07:48.852Z,97661.41
2022-11-08T14:10:14.965Z,97651.81
2022-11-08T14:12:41.047Z,97642.16
2022-11-08T14:15:07.142Z,97631.88
2022-11-08T14:17:33.256Z,97639.50
2022-11-08T14:19:59.345Z,97651.88
2022-11-08T14:22:25.437Z,97656.00
2022-11-08T14:24:51.547Z,97648.44
2022-11-08T14:27:17.633Z,97637.75
2022-11-08T14:29:43.719Z,97641.06
2022-11-08T14:32:09.820Z,97647.22
2022-11-08T14:34:35.932Z,97639.25
2022-11-08T14:37:02.030Z,97643.97
2022-11-08T14:39:28.142Z,97635.41
2022-11-08T14:41:54.245Z,97628.66
2022-11-08T14:44:20.337Z,97613.22
2022-11-08T14:46:46.440Z,97627.22
2022-11-08T14:49:12.537Z,97624.38
2022-11-08T14:51:38.642Z,97616.38
2022-11-08T14:54:04.756Z,97617.03
2022-11-08T14:56:30.853Z,97647.41
2022-11-08T14:58:56.945Z,97632.03
2022-11-08T15:01:23.126Z,97644.38
2022-11-08T15:03:49.297Z,97644.75
2022-11-08T15:06:15.424Z,97646.22
2022-11-08T15:08:41.540Z,97646.44
2022-11-08T15:11:07.630Z,97642.38
2022-11-08T15:13:33.937Z,97653.03
2022-11-08T15:16:00.071Z,97633.53
2022-11-08T15:18:26.165Z,97633.94
2022-11-08T15:20:52.256Z,97642.19
2022-11-08T15:23:18.579Z,97646.09
2022-11-08T15:25:45.009Z,97635.28
2022-11-08T15:28:11.112Z,97637.91
2022-11-08T15:30:37.242Z,97638.56
2022-11-08T15:33:03.372Z,97626.69
2022-11-08T15:35:29.496Z,97644.72
2022-11-08T15:37:55.612Z,97632.44
2022-11-08T15:40:21.716Z,97645.59
2022-11-08T15:42:47.820Z,97635.78
2022-11-08T15:45:13.981Z,97647.25
2022-11-08T15:47:40.076Z,97636.81
2022-11-08T15:50:06.181Z,97631.88
2022-11-08T15:52:32.295Z,97625.38
2022-11-08T15:54:58.385Z,97613.25
2022-11-08T15:57:24.480Z,97608.78
2022-11-08T15:59:50.601Z,97608.97
2022-11-08T16:02:16.695Z,97618.22
2022-11-08T16:04:42.798Z,97614.13
2022-11-08T16:07:08.979Z,97614.31
2022-11-08T16:09:35.168Z,97611.25
2022-11-08T16:12:01.270Z,97616.38
2022-11-08T16:14:27.399Z,97603.03
2022-11-08T16:16:53.524Z,97607.78
2022-11-08T16:19:19.632Z,97605.31
2022-11-08T16:21:45.757Z,97594.47
2022-11-08T16:24:11.849Z,97604.09
2022-11-08T16:26:37.957Z,97596.28
2022-11-08T16:29:04.058Z,97609.03
2022-11-08T16:31:30.173Z,97600.00
2022-11-08T16:33:56.277Z,97599.00
2022-11-08T16:36:22.390Z,97607.81
2022-11-08T16:38:48.491Z,97598.78
2022-11-08T16:41:14.595Z,97603.28
2022-11-08T16:43:40.713Z,97610.47
2022-11-08T16:46:07.393Z,97612.50
2022-11-08T16:48:33.628Z,97599.19
2022-11-08T16:51:00.221Z,97604.28
2022-11-08T16:53:26.337Z,97609.22
2022-11-08T16:55:52.433Z,97605.94
2022-11-08T16:58:18.748Z,97590.94
2022-11-08T17:00:45.138Z,97605.69
2022-11-08T17:03:11.238Z,97605.31
2022-11-08T17:05:37.366Z,97605.50
2022-11-08T17:08:03.468Z,97596.91
2022-11-08T17:10:29.576Z,97598.97
2022-11-08T17:12:55.700Z,97599.81
2022-11-08T17:15:21.806Z,97604.91
2022-11-08T17:17:47.916Z,97600.38
2022-11-08T17:20:14.019Z,97604.69
2022-11-08T17:22:40.112Z,97601.44
2022-11-08T17:25:06.211Z,97598.56
2022-11-08T17:27:32.664Z,97596.47
2022-11-08T17:29:58.820Z,97587.47
2022-11-08T17:32:24.955Z,97592.00
2022-11-08T17:34:51.064Z,97598.13
2022-11-08T17:37:17.171Z,97601.56
2022-11-08T17:39:43.263Z,97612.84
2022-11-08T17:42:09.385Z,97613.84
2022-11-08T17:44:35.472Z,97601.38
2022-11-08T17:47:01.581Z,97596.44
2022-11-08T17:49:27.695Z,97608.94
2022-11-08T17:51:53.797Z,97593.75
2022-11-08T17:54:19.887Z,97608.75
2022-11-08T17:56:45.997Z,97612.84
2022-11-08T17:59:12.086Z,97621.22
2022-11-08T18:01:38.352Z,97620.19
2022-11-08T18:04:04.617Z,97604.22
2022-11-08T18:06:30.756Z,97619.78
2022-11-08T18:08:56.896Z,97619.56
2022-11-08T18:11:23.008Z,97620.59
2022-11-08T18:13:49.157Z,97596.22
2022-11-08T18:16:15.259Z,97593.56
2022-11-08T18:18:41.388Z,97606.03
2022-11-08T18:21:07.488Z,97595.44
2022-11-08T18:23:33.580Z,97596.84
2022-11-08T18:25:59.682Z,97599.50
2022-11-08T18:28:25.784Z,97589.03
2022-11-08T18:30:51.883Z,97603.00
2022-11-08T18:33:18.195Z,97599.53
2022-11-08T18:35:44.473Z,97598.47
2022-11-08T18:38:10.626Z,97597.66
2022-11-08T18:40:36.756Z,97596.44
2022-11-08T18:43:02.837Z,97601.16
2022-11-08T18:45:28.952Z,97594.19
2022-11-08T18:47:55.105Z,97592.72
2022-11-08T18:50:21.200Z,97586.81
2022-11-08T18:52:47.346Z,97586.59
2022-11-08T18:55:13.774Z,97596.06
2022-11-08T18:57:39.888Z,97585.78
2022-11-08T19:00:06.012Z,97588.47
2022-11-08T19:02:32.144Z,97598.09
2022-11-08T19:04:58.261Z,97585.41
2022-11-08T19:07:24.382Z,97603.38
2022-11-08T19:09:50.525Z,97596.22
2022-11-08T19:12:16.635Z,97605.22
2022-11-08T19:14:42.737Z,97599.28
2022-11-08T19:17:08.854Z,97597.47
2022-11-08T19:19:34.952Z,97593.59
2022-11-08T19:22:01.043Z,97609.13
2022-11-08T19:24:27.156Z,97599.28
2022-11-08T19:26:53.260Z,97607.72
2022-11-08T19:29:19.366Z,97598.72
2022-11-08T19:31:45.507Z,97597.06
2022-11-08T19:34:11.604Z,97598.09
2022-11-08T19:36:37.700Z,97607.50
2022-11-08T19:39:03.821Z,97618.16
2022-11-08T19:41:29.913Z,97617.13
2022-11-08T19:43:56.001Z,97597.25
2022-11-08T19:46:22.147Z,97605.47
2022-11-08T19:48:48.253Z,97613.41
2022-11-08T19:51:14.351Z,97616.28
2022-11-08T19:53:40.451Z,97610.34
2022-11-08T19:56:06.547Z,97623.41
2022-11-08T19:58:32.645Z,97633.06
2022-11-08T20:00:58.792Z,97622.41
2022-11-08T20:03:24.878Z,97630.59
2022-11-08T20:05:50.960Z,97617.72
2022-11-08T20:08:17.398Z,97632.28
2022-11-08T20:10:43.697Z,97609.53
2022-11-08T20:13:09.795Z,97623.69
2022-11-08T20:15:35.921Z,97616.06
2022-11-08T20:18:02.021Z,97619.97
2022-11-08T20:20:28.113Z,97629.44
2022-11-08T20:22:54.215Z,97632.09
2022-11-08T20:25:20.300Z,97624.31
2022-11-08T20:27:46.506Z,97625.94
2022-11-08T20:30:12.617Z,97629.63
2022-11-08T20:32:38.716Z,97619.63
2022-11-08T20:35:04.833Z,97622.28
2022-11-08T20:37:30.940Z,97626.78
2022-11-08T20:39:57.051Z,97622.72
2022-11-08T20:42:23.171Z,97619.88
2022-11-08T20:44:49.301Z,97618.81
2022-11-08T20:47:15.393Z,97613.69
2022-11-08T20:49:41.482Z,97611.25
2022-11-08T20:52:07.590Z,97613.13
2022-11-08T20:54:33.690Z,97623.16
2022-11-08T20:56:59.788Z,97617.84
2022-11-08T20:59:25.904Z,97618.03
2022-11-08T21:01:52.062Z,97629.72
2022-11-08T21:04:18.209Z,97636.66
2022-11-08T21:06:44.378Z,97645.28
2022-11-08T21:09:34.564Z,97636.28
2022-11-08T21:11:56.612Z,97626.44
2022-11-08T21:14:22.694Z,97626.22
2022-11-08T21:17:19.540Z,97638.72
2022-11-08T21:19:34.863Z,97622.13
2022-11-08T21:22:00.960Z,97632.59
2022-11-08T21:24:27.039Z,97634.81
2022-11-08T21:26:53.183Z,97639.75
2022-11-08T21:29:19.290Z,97635.44
2022-11-08T21:31:45.378Z,97628.25
2022-11-08T21:34:11.489Z,97630.91
2022-11-08T21:36:37.735Z,97631.34
2022-11-08T21:39:03.980Z,97635.22
2022-11-08T21:41:30.352Z,97643.59
2022-11-08T21:43:56.628Z,97644.66
2022-11-08T21:46:22.911Z,97636.84
2022-11-08T21:48:49.218Z,97639.53
2022-11-08T21:51:15.419Z,97641.16
2022-11-08T21:53:52.379Z,97639.94
2022-11-08T21:56:20.633Z,97641.81
2022-11-08T21:58:46.838Z,97642.63
2022-11-08T22:01:13.071Z,97644.03
2022-11-08T22:03:39.403Z,97638.72
2022-11-08T22:06:07.389Z,97644.22
2022-11-08T22:08:33.635Z,97656.31
2022-11-08T22:11:00.368Z,97649.97
2022-11-08T22:13:26.631Z,97659.38
2022-11-08T22:15:52.883Z,97655.91
2022-11-08T22:18:26.484Z,97655.06
2022-11-08T22:21:05.438Z,97650.59
2022-11-08T22:23:31.745Z,97663.66
2022-11-08T22:25:57.948Z,97650.97
2022-11-08T22:28:24.199Z,97631.94
2022-11-08T22:30:50.502Z,97634.00
2022-11-08T22:33:16.745Z,97643.22
2022-11-08T22:35:42.993Z,97648.31
2022-11-08T22:38:09.257Z,97635.66
2022-11-08T22:40:35.501Z,97642.00
2022-11-08T22:43:01.724Z,97630.34
2022-11-08T22:45:27.969Z,97644.47
2022-11-08T22:47:54.220Z,97642.63
2022-11-08T22:50:20.346Z,97632.59
2022-11-08T22:52:46.457Z,97637.09
2022-11-08T22:55:12.542Z,97618.88
2022-11-08T22:57:38.633Z,97633.00
2022-11-08T23:00:04.750Z,97643.66
2022-11-08T23:02:33.265Z,97645.72
2022-11-08T23:04:59.548Z,97644.28
2022-11-08T23:07:25.654Z,97647.75
2022-11-08T23:09:51.736Z,97635.88
2022-11-08T23:12:17.829Z,97640.19
2022-11-08T23:14:43.926Z,97641.63
2022-11-08T23:17:10.010Z,97649.00
2022-11-08T23:19:36.102Z,97659.03
2022-11-08T23:22:02.208Z,97659.84
2022-11-08T23:24:28.312Z,97655.16
2022-11-08T23:26:54.419Z,97654.34
2022-11-08T23:29:20.524Z,97650.66
2022-11-08T23:31:46.611Z,97654.94
2022-11-08T23:34:12.708Z,97648.19
2022-11-08T23:36:39.294Z,97647.16
2022-11-08T23:39:05.398Z,97646.97
2022-11-08T23:41:31.487Z,97632.22
2022-11-08T23:43:57.596Z,97625.88
2022-11-08T23:46:23.696Z,97649.44
2022-11-08T23:48:49.795Z,97646.16
2022-11-08T23:51:15.898Z,97654.94
2022-11-08T23:53:41.994Z,97637.13
2022-11-08T23:56:08.092Z,97650.03
2022-11-08T23:58:34.219Z,97659.03
